createdAt,value
2023-11-06T04:21:09.961Z,100.00
2023-11-06T04:24:12.617Z,100.00
2023-11-06T04:27:14.771Z,100.00
2023-11-06T04:30:17.357Z,100.00
2023-11-06T04:33:19.701Z,100.00
2023-11-06T04:36:22.538Z,100.00
2023-11-06T04:39:24.695Z,100.00
2023-11-06T04:42:27.400Z,100.00
2023-11-06T04:45:29.566Z,100.00
2023-11-06T04:48:32.713Z,100.00
2023-11-06T04:51:35.124Z,100.00
2023-11-06T04:54:42.122Z,100.00
2023-11-06T04:57:44.337Z,100.00
2023-11-06T05:00:47.413Z,100.00
2023-11-06T05:03:49.735Z,97.88
2023-11-06T05:06:52.581Z,96.31
2023-11-06T05:09:54.905Z,99.91
2023-11-06T05:12:57.441Z,98.38
2023-11-06T05:15:59.617Z,99.29
2023-11-06T05:19:02.222Z,99.53
2023-11-06T05:22:04.920Z,98.71
2023-11-06T05:25:09.285Z,98.63
2023-11-06T05:28:11.446Z,100.00
2023-11-06T05:31:13.942Z,97.73
2023-11-06T05:34:16.088Z,99.77
2023-11-06T05:37:18.607Z,99.22
2023-11-06T05:40:21.308Z,98.28
2023-11-06T05:43:23.719Z,100.00
2023-11-06T05:46:26.538Z,97.96
2023-11-06T05:49:29.019Z,96.18
2023-11-06T05:52:32.833Z,97.00
2023-11-06T05:55:36.487Z,98.40
2023-11-06T05:58:38.696Z,100.00
2023-11-06T06:01:41.220Z,100.00
2023-11-06T06:04:43.711Z,99.66
2023-11-06T06:07:46.008Z,100.00
2023-11-06T06:10:48.464Z,99.81
2023-11-06T06:13:50.625Z,100.00
2023-11-06T06:16:53.069Z,100.00
2023-11-06T06:19:55.257Z,98.80
2023-11-06T06:22:57.821Z,98.55
2023-11-06T06:26:01.570Z,99.96
2023-11-06T06:29:05.277Z,99.65
2023-11-06T06:32:08.279Z,99.76
2023-11-06T06:35:11.433Z,98.96
2023-11-06T06:38:13.950Z,97.49
2023-11-06T06:41:17.021Z,100.00
2023-11-06T06:44:19.538Z,91.43
2023-11-06T06:47:22.510Z,89.86
2023-11-06T06:50:24.770Z,87.13
2023-11-06T06:53:27.303Z,88.78
2023-11-06T06:56:29.635Z,89.19
2023-11-06T06:59:32.692Z,85.50
2023-11-06T07:02:35.406Z,82.49
2023-11-06T07:05:38.994Z,82.94
2023-11-06T07:08:41.553Z,85.64
2023-11-06T07:11:46.034Z,86.18
2023-11-06T07:14:49.893Z,84.57
2023-11-06T07:17:54.080Z,84.24
2023-11-06T07:20:56.387Z,77.84
2023-11-06T07:23:59.093Z,80.63
2023-11-06T07:27:01.659Z,75.69
2023-11-06T07:30:08.720Z,74.39
2023-11-06T07:33:12.541Z,78.01
2023-11-06T07:36:15.247Z,85.78
2023-11-06T07:39:19.590Z,90.07
2023-11-06T07:42:22.704Z,93.99
2023-11-06T07:45:25.219Z,91.01
2023-11-06T07:48:28.375Z,94.33
2023-11-06T07:51:30.888Z,92.59
2023-11-06T07:54:33.597Z,92.95
2023-11-06T07:57:35.933Z,91.21
2023-11-06T08:00:46.948Z,89.59
2023-11-06T08:03:52.841Z,93.64
2023-11-06T08:06:55.145Z,96.78
2023-11-06T08:09:57.582Z,95.52
2023-11-06T08:13:00.973Z,87.78
2023-11-06T08:16:06.075Z,80.63
2023-11-06T08:19:08.932Z,78.72
2023-11-06T08:22:11.528Z,77.25
2023-11-06T08:25:15.157Z,81.03
2023-11-06T08:28:17.813Z,79.53
2023-11-06T08:31:20.094Z,81.86
2023-11-06T08:34:22.835Z,78.64
2023-11-06T08:37:25.114Z,78.66
2023-11-06T08:40:27.726Z,78.65
2023-11-06T08:43:30.162Z,80.48
2023-11-06T08:46:33.099Z,78.85
2023-11-06T08:49:35.541Z,78.11
2023-11-06T08:52:37.996Z,82.78
2023-11-06T08:55:42.554Z,87.37
2023-11-06T08:58:45.517Z,87.72
2023-11-06T09:01:49.321Z,83.04
2023-11-06T09:04:51.892Z,78.69
2023-11-06T09:07:54.840Z,76.05
2023-11-06T09:11:01.977Z,72.87
2023-11-06T09:14:04.638Z,73.48
2023-11-06T09:17:08.145Z,69.71
2023-11-06T09:20:11.261Z,70.86
2023-11-06T09:23:13.939Z,69.93
2023-11-06T09:26:16.405Z,69.26
2023-11-06T09:29:19.631Z,70.11
2023-11-06T09:32:23.295Z,69.21
2023-11-06T09:35:26.238Z,66.91
2023-11-06T09:38:28.479Z,66.95
2023-11-06T09:41:31.064Z,67.10
2023-11-06T09:44:33.395Z,66.49
2023-11-06T09:47:37.998Z,65.04
2023-11-06T09:50:43.001Z,62.70
2023-11-06T09:53:46.806Z,62.24
2023-11-06T09:56:48.984Z,64.34
2023-11-06T09:59:52.085Z,61.05
2023-11-06T10:02:54.530Z,59.80
2023-11-06T10:05:59.011Z,60.13
2023-11-06T10:09:20.866Z,59.91
2023-11-06T10:12:23.339Z,60.60
2023-11-06T10:15:28.713Z,61.20
2023-11-06T10:18:31.417Z,60.38
2023-11-06T10:21:33.615Z,60.33
2023-11-06T10:24:52.504Z,60.80
2023-11-06T10:27:55.877Z,57.93
2023-11-06T10:30:59.739Z,58.85
2023-11-06T10:34:02.043Z,56.92
2023-11-06T10:37:12.370Z,57.13
2023-11-06T10:40:20.258Z,59.69
2023-11-06T10:43:24.711Z,55.61
2023-11-06T10:46:32.558Z,54.17
2023-11-06T10:49:51.347Z,56.08
2023-11-06T10:52:55.964Z,57.94
2023-11-06T10:56:02.438Z,58.51
2023-11-06T10:59:04.861Z,58.86
2023-11-06T11:02:08.707Z,57.90
2023-11-06T11:05:16.197Z,58.18
2023-11-06T11:08:20.945Z,58.55
2023-11-06T11:11:24.532Z,57.98
2023-11-06T11:14:27.207Z,57.01
2023-11-06T11:17:29.902Z,56.10
2023-11-06T11:20:56.387Z,45.48
2023-11-06T11:23:58.703Z,37.38
2023-11-06T11:27:11.965Z,33.25
2023-11-06T11:30:14.728Z,26.19
2023-11-06T11:33:58.018Z,20.84
2023-11-06T11:37:21.817Z,17.33
2023-11-06T11:40:25.731Z,16.97
2023-11-06T11:43:37.197Z,17.70
2023-11-06T11:46:39.672Z,21.45
2023-11-06T11:49:49.110Z,24.25
2023-11-06T11:52:51.974Z,26.27
2023-11-06T11:55:54.368Z,32.08
2023-11-06T11:58:57.972Z,35.67
2023-11-06T12:02:00.828Z,39.56
2023-11-06T12:05:16.066Z,43.84
2023-11-06T12:08:27.838Z,44.79
2023-11-06T12:11:32.442Z,45.81
2023-11-06T12:14:39.031Z,45.51
2023-11-06T12:17:42.019Z,45.97
2023-11-06T12:20:48.117Z,49.13
2023-11-06T12:23:50.843Z,47.75
2023-11-06T12:26:57.491Z,49.24
2023-11-06T12:30:08.671Z,50.83
2023-11-06T12:33:12.622Z,48.37
2023-11-06T12:36:30.562Z,47.44
2023-11-06T12:39:35.248Z,48.75
2023-11-06T12:42:38.582Z,49.86
2023-11-06T12:45:42.118Z,53.25
2023-11-06T12:48:45.013Z,56.22
2023-11-06T12:51:48.213Z,58.92
2023-11-06T12:54:51.405Z,58.20
2023-11-06T12:58:02.768Z,60.44
2023-11-06T13:01:19.629Z,59.62
2023-11-06T13:04:22.156Z,60.46
2023-11-06T13:07:25.019Z,62.89
2023-11-06T13:10:27.549Z,63.19
2023-11-06T13:13:31.890Z,63.63
2023-11-06T13:16:34.064Z,65.02
2023-11-06T13:19:36.829Z,62.79
2023-11-06T13:22:39.120Z,62.19
2023-11-06T13:25:41.753Z,60.80
2023-11-06T13:28:44.789Z,58.69
2023-11-06T13:31:47.468Z,53.14
2023-11-06T13:34:50.476Z,55.63
2023-11-06T13:37:55.306Z,58.18
2023-11-06T13:40:59.305Z,58.38
2023-11-06T13:44:01.899Z,57.29
2023-11-06T13:47:04.160Z,54.76
2023-11-06T13:50:22.039Z,55.74
2023-11-06T13:53:25.011Z,56.35
2023-11-06T13:56:38.298Z,54.40
2023-11-06T13:59:45.411Z,56.39
2023-11-06T14:02:48.750Z,57.32
2023-11-06T14:05:53.228Z,56.97
2023-11-06T14:08:57.098Z,56.99
2023-11-06T14:11:59.616Z,58.28
2023-11-06T14:15:01.908Z,59.33
2023-11-06T14:18:07.856Z,59.00
2023-11-06T14:21:10.145Z,59.41
2023-11-06T14:24:12.773Z,59.45
2023-11-06T14:27:15.158Z,59.21
2023-11-06T14:30:18.814Z,59.42
2023-11-06T14:33:22.578Z,60.46
2023-11-06T14:36:25.087Z,59.99
2023-11-06T14:39:27.247Z,61.07
2023-11-06T14:42:29.742Z,62.95
2023-11-06T14:45:33.067Z,64.03
2023-11-06T14:48:36.692Z,65.45
2023-11-06T14:51:40.263Z,66.95
2023-11-06T14:54:42.878Z,68.06
2023-11-06T14:57:45.135Z,67.41
2023-11-06T15:00:47.583Z,67.69
2023-11-06T15:03:50.102Z,69.31
2023-11-06T15:06:52.790Z,70.74
2023-11-06T15:09:55.004Z,73.10
2023-11-06T15:12:57.782Z,75.30
2023-11-06T15:16:01.523Z,77.39
2023-11-06T15:19:04.115Z,79.84
2023-11-06T15:22:06.657Z,83.57
2023-11-06T15:25:12.693Z,87.47
2023-11-06T15:28:14.888Z,91.46
2023-11-06T15:31:17.340Z,95.59
2023-11-06T15:34:20.467Z,98.08
2023-11-06T15:37:22.968Z,100.00
2023-11-06T15:40:27.499Z,100.00
2023-11-06T15:43:31.358Z,100.00
2023-11-06T15:46:38.446Z,100.00
2023-11-06T15:49:41.607Z,100.00
2023-11-06T15:52:43.908Z,100.00
2023-11-06T15:55:47.285Z,100.00
2023-11-06T15:58:49.698Z,100.00
2023-11-06T16:02:00.208Z,100.00
2023-11-06T16:05:02.790Z,100.00
2023-11-06T16:08:05.467Z,100.00
2023-11-06T16:11:15.293Z,100.00
2023-11-06T16:14:17.622Z,100.00
2023-11-06T16:17:20.462Z,100.00
2023-11-06T16:20:28.296Z,100.00
2023-11-06T16:23:31.010Z,100.00
